sensor_id;sensor_type;location;lat;lon;timestamp;P1;durP1;ratioP1;P2;durP2;ratioP2
8044;SDS011;4065;48.754;9.982;2023-07-09T00:01:03;4.63;;;3.75;;
8044;SDS011;4065;48.754;9.982;2023-07-09T00:04:27;5.45;;;3.67;;
8044;SDS011;4065;48.754;9.982;2023-07-09T00:07:50;5.75;;;3.80;;
8044;SDS011;4065;48.754;9.982;2023-07-09T00:11:12;5.10;;;4.10;;
8044;SDS011;4065;48.754;9.982;2023-07-09T00:14:34;4.20;;;3.45;;
8044;SDS011;4065;48.754;9.982;2023-07-09T00:17:56;4.07;;;3.65;;
8044;SDS011;4065;48.754;9.982;2023-07-09T00:21:22;5.50;;;3.80;;
8044;SDS011;4065;48.754;9.982;2023-07-09T00:24:44;4.15;;;3.17;;
8044;SDS011;4065;48.754;9.982;2023-07-09T00:28:08;6.20;;;3.97;;
8044;SDS011;4065;48.754;9.982;2023-07-09T00:31:34;5.95;;;3.72;;
8044;SDS011;4065;48.754;9.982;2023-07-09T00:35:01;7.50;;;4.10;;
8044;SDS011;4065;48.754;9.982;2023-07-09T00:38:26;7.55;;;4.20;;
8044;SDS011;4065;48.754;9.982;2023-07-09T00:41:49;6.32;;;4.25;;
8044;SDS011;4065;48.754;9.982;2023-07-09T00:45:16;5.60;;;4.22;;
8044;SDS011;4065;48.754;9.982;2023-07-09T00:48:40;5.63;;;4.07;;
8044;SDS011;4065;48.754;9.982;2023-07-09T00:55:44;5.95;;;4.22;;
8044;SDS011;4065;48.754;9.982;2023-07-09T00:59:08;5.25;;;4.22;;
8044;SDS011;4065;48.754;9.982;2023-07-09T01:02:32;4.68;;;4.18;;
8044;SDS011;4065;48.754;9.982;2023-07-09T01:05:55;6.45;;;4.57;;
8044;SDS011;4065;48.754;9.982;2023-07-09T01:09:18;5.82;;;4.22;;
8044;SDS011;4065;48.754;9.982;2023-07-09T01:12:41;6.55;;;4.40;;
8044;SDS011;4065;48.754;9.982;2023-07-09T01:16:04;5.55;;;4.07;;
8044;SDS011;4065;48.754;9.982;2023-07-09T01:19:27;6.25;;;3.75;;
8044;SDS011;4065;48.754;9.982;2023-07-09T01:22:51;6.30;;;3.95;;
8044;SDS011;4065;48.754;9.982;2023-07-09T01:26:18;6.10;;;4.45;;
8044;SDS011;4065;48.754;9.982;2023-07-09T01:29:41;7.40;;;4.38;;
8044;SDS011;4065;48.754;9.982;2023-07-09T01:33:03;4.60;;;3.70;;
8044;SDS011;4065;48.754;9.982;2023-07-09T01:36:26;4.82;;;4.05;;
8044;SDS011;4065;48.754;9.982;2023-07-09T01:39:50;5.68;;;4.00;;
8044;SDS011;4065;48.754;9.982;2023-07-09T01:43:12;4.25;;;3.63;;
8044;SDS011;4065;48.754;9.982;2023-07-09T01:46:34;5.00;;;4.07;;
8044;SDS011;4065;48.754;9.982;2023-07-09T01:49:56;4.78;;;3.88;;
8044;SDS011;4065;48.754;9.982;2023-07-09T01:53:19;4.78;;;4.07;;
8044;SDS011;4065;48.754;9.982;2023-07-09T01:56:45;5.35;;;3.78;;
8044;SDS011;4065;48.754;9.982;2023-07-09T02:00:08;6.65;;;4.18;;
8044;SDS011;4065;48.754;9.982;2023-07-09T02:03:34;6.35;;;4.28;;
8044;SDS011;4065;48.754;9.982;2023-07-09T02:06:56;5.88;;;4.10;;
8044;SDS011;4065;48.754;9.982;2023-07-09T02:10:18;4.47;;;3.90;;
8044;SDS011;4065;48.754;9.982;2023-07-09T02:13:41;5.82;;;4.63;;
8044;SDS011;4065;48.754;9.982;2023-07-09T02:17:04;7.22;;;4.32;;
8044;SDS011;4065;48.754;9.982;2023-07-09T02:20:26;5.60;;;4.57;;
8044;SDS011;4065;48.754;9.982;2023-07-09T02:23:48;5.45;;;4.68;;
8044;SDS011;4065;48.754;9.982;2023-07-09T02:27:10;5.38;;;4.70;;
8044;SDS011;4065;48.754;9.982;2023-07-09T02:30:36;6.22;;;3.60;;
8044;SDS011;4065;48.754;9.982;2023-07-09T02:33:58;5.45;;;4.10;;
8044;SDS011;4065;48.754;9.982;2023-07-09T02:37:20;7.00;;;4.60;;
8044;SDS011;4065;48.754;9.982;2023-07-09T02:40:46;5.40;;;4.20;;
8044;SDS011;4065;48.754;9.982;2023-07-09T02:44:08;5.93;;;3.95;;
8044;SDS011;4065;48.754;9.982;2023-07-09T02:47:32;5.38;;;4.15;;
8044;SDS011;4065;48.754;9.982;2023-07-09T02:50:54;6.70;;;4.70;;
8044;SDS011;4065;48.754;9.982;2023-07-09T02:54:16;10.68;;;4.80;;
8044;SDS011;4065;48.754;9.982;2023-07-09T02:57:38;6.18;;;4.50;;
8044;SDS011;4065;48.754;9.982;2023-07-09T03:01:00;6.22;;;4.50;;
8044;SDS011;4065;48.754;9.982;2023-07-09T03:04:27;6.57;;;4.57;;
8044;SDS011;4065;48.754;9.982;2023-07-09T03:07:49;6.07;;;4.00;;
8044;SDS011;4065;48.754;9.982;2023-07-09T03:11:11;6.25;;;4.20;;
8044;SDS011;4065;48.754;9.982;2023-07-09T03:14:35;7.63;;;4.68;;
8044;SDS011;4065;48.754;9.982;2023-07-09T03:17:57;5.22;;;4.32;;
8044;SDS011;4065;48.754;9.982;2023-07-09T03:21:20;6.07;;;4.50;;
8044;SDS011;4065;48.754;9.982;2023-07-09T03:24:42;8.70;;;5.18;;
8044;SDS011;4065;48.754;9.982;2023-07-09T03:28:04;8.00;;;4.82;;
8044;SDS011;4065;48.754;9.982;2023-07-09T03:31:26;7.20;;;5.28;;
8044;SDS011;4065;48.754;9.982;2023-07-09T03:34:48;6.00;;;4.63;;
8044;SDS011;4065;48.754;9.982;2023-07-09T03:38:12;6.50;;;4.80;;
8044;SDS011;4065;48.754;9.982;2023-07-09T03:41:34;8.45;;;5.47;;
8044;SDS011;4065;48.754;9.982;2023-07-09T03:44:56;6.07;;;5.18;;
8044;SDS011;4065;48.754;9.982;2023-07-09T03:48:18;6.78;;;5.03;;
8044;SDS011;4065;48.754;9.982;2023-07-09T03:51:40;6.85;;;5.05;;
8044;SDS011;4065;48.754;9.982;2023-07-09T03:55:04;6.95;;;5.07;;
8044;SDS011;4065;48.754;9.982;2023-07-09T03:58:27;8.13;;;5.20;;
8044;SDS011;4065;48.754;9.982;2023-07-09T04:01:49;6.07;;;4.80;;
8044;SDS011;4065;48.754;9.982;2023-07-09T04:05:11;9.40;;;4.63;;
8044;SDS011;4065;48.754;9.982;2023-07-09T04:08:33;6.97;;;5.30;;
8044;SDS011;4065;48.754;9.982;2023-07-09T04:11:57;8.10;;;5.75;;
8044;SDS011;4065;48.754;9.982;2023-07-09T04:15:21;6.75;;;5.07;;
8044;SDS011;4065;48.754;9.982;2023-07-09T04:18:43;7.80;;;5.20;;
8044;SDS011;4065;48.754;9.982;2023-07-09T04:22:05;7.45;;;5.53;;
8044;SDS011;4065;48.754;9.982;2023-07-09T04:25:27;7.45;;;5.32;;
8044;SDS011;4065;48.754;9.982;2023-07-09T04:28:51;6.03;;;5.05;;
8044;SDS011;4065;48.754;9.982;2023-07-09T04:32:13;6.03;;;5.40;;
8044;SDS011;4065;48.754;9.982;2023-07-09T04:35:36;7.30;;;5.40;;
8044;SDS011;4065;48.754;9.982;2023-07-09T04:38:58;6.15;;;4.97;;
8044;SDS011;4065;48.754;9.982;2023-07-09T04:42:20;10.48;;;5.43;;
8044;SDS011;4065;48.754;9.982;2023-07-09T04:45:43;6.43;;;5.47;;
8044;SDS011;4065;48.754;9.982;2023-07-09T04:49:05;5.13;;;4.57;;
8044;SDS011;4065;48.754;9.982;2023-07-09T04:52:27;8.13;;;4.45;;
8044;SDS011;4065;48.754;9.982;2023-07-09T04:55:50;5.70;;;4.75;;
8044;SDS011;4065;48.754;9.982;2023-07-09T04:59:12;8.32;;;5.25;;
8044;SDS011;4065;48.754;9.982;2023-07-09T05:02:36;8.68;;;5.07;;
8044;SDS011;4065;48.754;9.982;2023-07-09T05:05:58;6.72;;;5.00;;
8044;SDS011;4065;48.754;9.982;2023-07-09T05:09:20;6.53;;;4.97;;
8044;SDS011;4065;48.754;9.982;2023-07-09T05:12:48;5.97;;;5.00;;
8044;SDS011;4065;48.754;9.982;2023-07-09T05:16:11;8.05;;;5.50;;
8044;SDS011;4065;48.754;9.982;2023-07-09T05:19:35;6.53;;;5.07;;
8044;SDS011;4065;48.754;9.982;2023-07-09T05:22:57;5.68;;;5.07;;
8044;SDS011;4065;48.754;9.982;2023-07-09T05:26:19;6.22;;;5.30;;
8044;SDS011;4065;48.754;9.982;2023-07-09T05:29:41;6.55;;;4.88;;
8044;SDS011;4065;48.754;9.982;2023-07-09T05:33:03;7.22;;;5.28;;
8044;SDS011;4065;48.754;9.982;2023-07-09T05:36:27;6.28;;;4.85;;
8044;SDS011;4065;48.754;9.982;2023-07-09T05:39:49;20.38;;;5.80;;
8044;SDS011;4065;48.754;9.982;2023-07-09T05:43:11;9.10;;;5.65;;
8044;SDS011;4065;48.754;9.982;2023-07-09T05:46:33;5.97;;;4.88;;
8044;SDS011;4065;48.754;9.982;2023-07-09T05:49:57;6.22;;;4.63;;
8044;SDS011;4065;48.754;9.982;2023-07-09T05:53:20;7.43;;;4.70;;
8044;SDS011;4065;48.754;9.982;2023-07-09T05:56:43;6.57;;;4.40;;
8044;SDS011;4065;48.754;9.982;2023-07-09T06:00:05;6.82;;;4.80;;
8044;SDS011;4065;48.754;9.982;2023-07-09T06:03:29;7.18;;;5.28;;
8044;SDS011;4065;48.754;9.982;2023-07-09T06:06:51;8.85;;;5.25;;
8044;SDS011;4065;48.754;9.982;2023-07-09T06:10:15;6.55;;;5.20;;
8044;SDS011;4065;48.754;9.982;2023-07-09T06:13:37;6.72;;;4.50;;
8044;SDS011;4065;48.754;9.982;2023-07-09T06:17:00;6.30;;;4.65;;
8044;SDS011;4065;48.754;9.982;2023-07-09T06:20:22;6.22;;;4.28;;
8044;SDS011;4065;48.754;9.982;2023-07-09T06:23:44;5.20;;;4.05;;
8044;SDS011;4065;48.754;9.982;2023-07-09T06:27:08;6.72;;;4.50;;
8044;SDS011;4065;48.754;9.982;2023-07-09T06:30:30;8.27;;;4.82;;
8044;SDS011;4065;48.754;9.982;2023-07-09T06:33:52;6.65;;;4.72;;
8044;SDS011;4065;48.754;9.982;2023-07-09T06:37:14;8.90;;;4.20;;
8044;SDS011;4065;48.754;9.982;2023-07-09T06:40:36;6.18;;;4.35;;
8044;SDS011;4065;48.754;9.982;2023-07-09T06:44:00;7.32;;;4.82;;
8044;SDS011;4065;48.754;9.982;2023-07-09T06:47:22;9.20;;;4.72;;
8044;SDS011;4065;48.754;9.982;2023-07-09T06:50:44;5.57;;;4.43;;
8044;SDS011;4065;48.754;9.982;2023-07-09T06:54:06;4.55;;;4.03;;
8044;SDS011;4065;48.754;9.982;2023-07-09T06:57:29;6.32;;;4.50;;
8044;SDS011;4065;48.754;9.982;2023-07-09T07:00:52;5.43;;;4.47;;
8044;SDS011;4065;48.754;9.982;2023-07-09T07:04:14;6.30;;;4.25;;
8044;SDS011;4065;48.754;9.982;2023-07-09T07:07:36;7.82;;;4.25;;
8044;SDS011;4065;48.754;9.982;2023-07-09T07:10:59;7.00;;;4.38;;
8044;SDS011;4065;48.754;9.982;2023-07-09T07:14:23;6.03;;;4.13;;
8044;SDS011;4065;48.754;9.982;2023-07-09T07:17:46;5.53;;;4.07;;
8044;SDS011;4065;48.754;9.982;2023-07-09T07:21:08;6.47;;;4.50;;
8044;SDS011;4065;48.754;9.982;2023-07-09T07:24:30;7.25;;;4.30;;
8044;SDS011;4065;48.754;9.982;2023-07-09T07:27:52;4.70;;;3.90;;
8044;SDS011;4065;48.754;9.982;2023-07-09T07:31:14;5.68;;;3.95;;
8044;SDS011;4065;48.754;9.982;2023-07-09T07:34:38;4.18;;;3.42;;
8044;SDS011;4065;48.754;9.982;2023-07-09T07:38:00;6.28;;;4.20;;
8044;SDS011;4065;48.754;9.982;2023-07-09T07:41:22;7.38;;;4.20;;
8044;SDS011;4065;48.754;9.982;2023-07-09T07:44:44;5.53;;;3.65;;
8044;SDS011;4065;48.754;9.982;2023-07-09T07:48:06;5.78;;;3.72;;
8044;SDS011;4065;48.754;9.982;2023-07-09T07:51:29;6.97;;;3.78;;
8044;SDS011;4065;48.754;9.982;2023-07-09T07:54:52;6.28;;;3.75;;
8044;SDS011;4065;48.754;9.982;2023-07-09T07:58:14;5.53;;;3.80;;
8044;SDS011;4065;48.754;9.982;2023-07-09T08:01:36;4.60;;;3.60;;
8044;SDS011;4065;48.754;9.982;2023-07-09T08:04:58;6.07;;;4.03;;
8044;SDS011;4065;48.754;9.982;2023-07-09T08:08:21;5.97;;;3.78;;
8044;SDS011;4065;48.754;9.982;2023-07-09T08:11:43;4.68;;;3.72;;
8044;SDS011;4065;48.754;9.982;2023-07-09T08:15:05;5.32;;;3.90;;
8044;SDS011;4065;48.754;9.982;2023-07-09T08:18:28;7.95;;;4.07;;
8044;SDS011;4065;48.754;9.982;2023-07-09T08:21:50;6.50;;;4.53;;
8044;SDS011;4065;48.754;9.982;2023-07-09T08:25:14;8.02;;;4.20;;
8044;SDS011;4065;48.754;9.982;2023-07-09T08:28:37;6.10;;;4.13;;
8044;SDS011;4065;48.754;9.982;2023-07-09T08:31:59;5.57;;;4.20;;
8044;SDS011;4065;48.754;9.982;2023-07-09T08:35:21;5.88;;;4.30;;
8044;SDS011;4065;48.754;9.982;2023-07-09T08:38:44;6.57;;;4.45;;
8044;SDS011;4065;48.754;9.982;2023-07-09T08:42:09;6.78;;;4.30;;
8044;SDS011;4065;48.754;9.982;2023-07-09T08:45:35;5.57;;;3.95;;
8044;SDS011;4065;48.754;9.982;2023-07-09T08:49:27;6.35;;;4.40;;
8044;SDS011;4065;48.754;9.982;2023-07-09T08:52:56;8.10;;;4.47;;
8044;SDS011;4065;48.754;9.982;2023-07-09T08:56:19;5.47;;;4.10;;
8044;SDS011;4065;48.754;9.982;2023-07-09T08:59:43;8.07;;;4.35;;
8044;SDS011;4065;48.754;9.982;2023-07-09T09:03:10;6.05;;;4.30;;
8044;SDS011;4065;48.754;9.982;2023-07-09T09:06:35;6.05;;;3.92;;
8044;SDS011;4065;48.754;9.982;2023-07-09T09:10:00;6.03;;;4.03;;
8044;SDS011;4065;48.754;9.982;2023-07-09T09:13:25;6.75;;;4.65;;
8044;SDS011;4065;48.754;9.982;2023-07-09T09:16:51;6.40;;;4.15;;
8044;SDS011;4065;48.754;9.982;2023-07-09T09:20:16;6.25;;;4.20;;
8044;SDS011;4065;48.754;9.982;2023-07-09T09:23:43;5.00;;;3.55;;
8044;SDS011;4065;48.754;9.982;2023-07-09T09:27:08;6.70;;;4.50;;
8044;SDS011;4065;48.754;9.982;2023-07-09T09:30:30;6.32;;;3.67;;
8044;SDS011;4065;48.754;9.982;2023-07-09T09:33:54;5.28;;;3.58;;
8044;SDS011;4065;48.754;9.982;2023-07-09T09:40:47;6.00;;;3.80;;
8044;SDS011;4065;48.754;9.982;2023-07-09T09:44:16;6.13;;;3.90;;
8044;SDS011;4065;48.754;9.982;2023-07-09T09:47:39;6.82;;;4.07;;
8044;SDS011;4065;48.754;9.982;2023-07-09T09:51:04;7.05;;;3.85;;
8044;SDS011;4065;48.754;9.982;2023-07-09T09:54:27;5.00;;;3.53;;
8044;SDS011;4065;48.754;9.982;2023-07-09T09:57:51;7.10;;;3.83;;
8044;SDS011;4065;48.754;9.982;2023-07-09T10:01:15;6.18;;;3.85;;
8044;SDS011;4065;48.754;9.982;2023-07-09T10:04:39;7.25;;;4.10;;
8044;SDS011;4065;48.754;9.982;2023-07-09T10:08:06;6.05;;;3.70;;
8044;SDS011;4065;48.754;9.982;2023-07-09T10:11:31;6.13;;;4.18;;
8044;SDS011;4065;48.754;9.982;2023-07-09T10:14:58;5.53;;;3.90;;
8044;SDS011;4065;48.754;9.982;2023-07-09T10:18:25;7.53;;;4.28;;
8044;SDS011;4065;48.754;9.982;2023-07-09T10:21:51;6.70;;;4.20;;
8044;SDS011;4065;48.754;9.982;2023-07-09T10:25:24;6.35;;;4.32;;
8044;SDS011;4065;48.754;9.982;2023-07-09T10:28:59;7.20;;;4.28;;
8044;SDS011;4065;48.754;9.982;2023-07-09T10:32:37;6.00;;;4.43;;
8044;SDS011;4065;48.754;9.982;2023-07-09T10:36:07;7.97;;;4.78;;
8044;SDS011;4065;48.754;9.982;2023-07-09T10:39:37;5.45;;;4.47;;
8044;SDS011;4065;48.754;9.982;2023-07-09T10:43:02;7.38;;;4.15;;
8044;SDS011;4065;48.754;9.982;2023-07-09T10:46:26;7.90;;;4.13;;
8044;SDS011;4065;48.754;9.982;2023-07-09T10:49:51;8.07;;;4.47;;
8044;SDS011;4065;48.754;9.982;2023-07-09T10:53:14;5.53;;;4.25;;
8044;SDS011;4065;48.754;9.982;2023-07-09T10:56:38;5.50;;;4.28;;
8044;SDS011;4065;48.754;9.982;2023-07-09T11:00:02;8.77;;;4.50;;
8044;SDS011;4065;48.754;9.982;2023-07-09T11:03:31;7.18;;;4.03;;
8044;SDS011;4065;48.754;9.982;2023-07-09T11:06:59;7.20;;;4.05;;
8044;SDS011;4065;48.754;9.982;2023-07-09T11:10:23;6.78;;;4.47;;
8044;SDS011;4065;48.754;9.982;2023-07-09T11:13:47;6.53;;;4.53;;
8044;SDS011;4065;48.754;9.982;2023-07-09T11:17:13;5.75;;;4.32;;
8044;SDS011;4065;48.754;9.982;2023-07-09T11:20:41;11.75;;;5.45;;
8044;SDS011;4065;48.754;9.982;2023-07-09T11:24:04;5.97;;;4.20;;
8044;SDS011;4065;48.754;9.982;2023-07-09T11:27:27;7.25;;;4.35;;
8044;SDS011;4065;48.754;9.982;2023-07-09T11:30:50;5.55;;;4.13;;
8044;SDS011;4065;48.754;9.982;2023-07-09T11:34:17;5.68;;;4.15;;
8044;SDS011;4065;48.754;9.982;2023-07-09T11:37:44;9.02;;;4.68;;
8044;SDS011;4065;48.754;9.982;2023-07-09T11:41:24;6.15;;;4.10;;
8044;SDS011;4065;48.754;9.982;2023-07-09T11:44:48;7.05;;;4.13;;
8044;SDS011;4065;48.754;9.982;2023-07-09T11:48:14;9.10;;;5.20;;
8044;SDS011;4065;48.754;9.982;2023-07-09T11:51:46;8.50;;;5.10;;
8044;SDS011;4065;48.754;9.982;2023-07-09T11:55:22;8.55;;;4.50;;
8044;SDS011;4065;48.754;9.982;2023-07-09T11:58:48;7.68;;;4.90;;
8044;SDS011;4065;48.754;9.982;2023-07-09T12:02:29;6.63;;;4.97;;
8044;SDS011;4065;48.754;9.982;2023-07-09T12:05:55;9.13;;;4.35;;
8044;SDS011;4065;48.754;9.982;2023-07-09T12:09:19;9.35;;;4.80;;
8044;SDS011;4065;48.754;9.982;2023-07-09T12:12:42;6.93;;;4.55;;
8044;SDS011;4065;48.754;9.982;2023-07-09T12:16:04;6.13;;;4.22;;
8044;SDS011;4065;48.754;9.982;2023-07-09T12:19:39;7.97;;;4.18;;
8044;SDS011;4065;48.754;9.982;2023-07-09T12:23:09;7.95;;;4.40;;
8044;SDS011;4065;48.754;9.982;2023-07-09T12:26:33;6.80;;;4.32;;
8044;SDS011;4065;48.754;9.982;2023-07-09T12:29:56;6.38;;;4.40;;
8044;SDS011;4065;48.754;9.982;2023-07-09T12:33:19;5.88;;;3.97;;
8044;SDS011;4065;48.754;9.982;2023-07-09T12:36:43;5.78;;;4.28;;
8044;SDS011;4065;48.754;9.982;2023-07-09T12:40:08;4.93;;;3.78;;
8044;SDS011;4065;48.754;9.982;2023-07-09T12:43:35;6.00;;;3.97;;
8044;SDS011;4065;48.754;9.982;2023-07-09T12:46:57;6.95;;;4.38;;
8044;SDS011;4065;48.754;9.982;2023-07-09T12:50:23;9.32;;;4.95;;
8044;SDS011;4065;48.754;9.982;2023-07-09T12:53:59;6.78;;;4.28;;
8044;SDS011;4065;48.754;9.982;2023-07-09T12:57:23;7.72;;;4.43;;
8044;SDS011;4065;48.754;9.982;2023-07-09T13:00:48;6.97;;;4.03;;
8044;SDS011;4065;48.754;9.982;2023-07-09T13:04:12;7.45;;;4.47;;
8044;SDS011;4065;48.754;9.982;2023-07-09T13:07:36;6.68;;;4.07;;
8044;SDS011;4065;48.754;9.982;2023-07-09T13:10:59;6.93;;;4.32;;
8044;SDS011;4065;48.754;9.982;2023-07-09T13:14:22;9.45;;;4.65;;
8044;SDS011;4065;48.754;9.982;2023-07-09T13:17:47;7.05;;;4.32;;
8044;SDS011;4065;48.754;9.982;2023-07-09T13:21:13;6.40;;;4.22;;
8044;SDS011;4065;48.754;9.982;2023-07-09T13:24:38;7.05;;;4.68;;
8044;SDS011;4065;48.754;9.982;2023-07-09T13:28:00;7.35;;;4.50;;
8044;SDS011;4065;48.754;9.982;2023-07-09T13:31:28;6.97;;;4.72;;
8044;SDS011;4065;48.754;9.982;2023-07-09T13:34:51;7.68;;;4.57;;
8044;SDS011;4065;48.754;9.982;2023-07-09T13:38:13;7.78;;;4.50;;
8044;SDS011;4065;48.754;9.982;2023-07-09T13:41:36;6.72;;;4.00;;
8044;SDS011;4065;48.754;9.982;2023-07-09T13:44:59;6.45;;;4.47;;
8044;SDS011;4065;48.754;9.982;2023-07-09T13:48:21;8.10;;;4.55;;
8044;SDS011;4065;48.754;9.982;2023-07-09T13:51:44;9.18;;;4.22;;
8044;SDS011;4065;48.754;9.982;2023-07-09T13:55:09;5.43;;;3.97;;
8044;SDS011;4065;48.754;9.982;2023-07-09T13:58:38;6.15;;;4.63;;
8044;SDS011;4065;48.754;9.982;2023-07-09T14:02:00;9.07;;;4.20;;
8044;SDS011;4065;48.754;9.982;2023-07-09T14:05:22;5.90;;;4.03;;
8044;SDS011;4065;48.754;9.982;2023-07-09T14:08:46;9.80;;;4.47;;
8044;SDS011;4065;48.754;9.982;2023-07-09T14:12:08;7.95;;;4.30;;
8044;SDS011;4065;48.754;9.982;2023-07-09T14:15:30;9.77;;;4.85;;
8044;SDS011;4065;48.754;9.982;2023-07-09T14:18:53;6.28;;;4.20;;
8044;SDS011;4065;48.754;9.982;2023-07-09T14:22:19;9.75;;;4.18;;
8044;SDS011;4065;48.754;9.982;2023-07-09T14:25:53;6.60;;;4.38;;
8044;SDS011;4065;48.754;9.982;2023-07-09T14:29:15;6.75;;;3.95;;
8044;SDS011;4065;48.754;9.982;2023-07-09T14:32:38;7.15;;;4.35;;
8044;SDS011;4065;48.754;9.982;2023-07-09T14:36:02;7.78;;;4.40;;
8044;SDS011;4065;48.754;9.982;2023-07-09T14:39:25;7.47;;;4.30;;
8044;SDS011;4065;48.754;9.982;2023-07-09T14:42:49;5.65;;;3.95;;
8044;SDS011;4065;48.754;9.982;2023-07-09T14:46:12;6.90;;;4.03;;
8044;SDS011;4065;48.754;9.982;2023-07-09T14:49:34;7.72;;;4.30;;
8044;SDS011;4065;48.754;9.982;2023-07-09T14:52:56;5.43;;;3.90;;
8044;SDS011;4065;48.754;9.982;2023-07-09T14:56:18;9.25;;;4.35;;
8044;SDS011;4065;48.754;9.982;2023-07-09T14:59:41;8.30;;;4.32;;
8044;SDS011;4065;48.754;9.982;2023-07-09T15:03:03;6.07;;;3.72;;
8044;SDS011;4065;48.754;9.982;2023-07-09T15:06:25;6.35;;;4.53;;
8044;SDS011;4065;48.754;9.982;2023-07-09T15:09:47;5.65;;;3.67;;
8044;SDS011;4065;48.754;9.982;2023-07-09T15:13:12;6.90;;;4.05;;
8044;SDS011;4065;48.754;9.982;2023-07-09T15:16:39;8.35;;;4.18;;
8044;SDS011;4065;48.754;9.982;2023-07-09T15:20:02;5.72;;;4.38;;
8044;SDS011;4065;48.754;9.982;2023-07-09T15:23:25;9.45;;;4.40;;
8044;SDS011;4065;48.754;9.982;2023-07-09T15:26:48;5.88;;;4.05;;
8044;SDS011;4065;48.754;9.982;2023-07-09T15:30:15;6.65;;;4.65;;
8044;SDS011;4065;48.754;9.982;2023-07-09T15:33:40;5.70;;;3.95;;
8044;SDS011;4065;48.754;9.982;2023-07-09T15:37:04;7.18;;;4.20;;
8044;SDS011;4065;48.754;9.982;2023-07-09T15:40:32;7.93;;;4.45;;
8044;SDS011;4065;48.754;9.982;2023-07-09T15:43:54;8.27;;;3.90;;
8044;SDS011;4065;48.754;9.982;2023-07-09T15:47:26;7.70;;;4.30;;
8044;SDS011;4065;48.754;9.982;2023-07-09T15:50:55;7.00;;;4.18;;
8044;SDS011;4065;48.754;9.982;2023-07-09T15:54:18;8.32;;;4.70;;
8044;SDS011;4065;48.754;9.982;2023-07-09T15:57:42;7.35;;;4.07;;
8044;SDS011;4065;48.754;9.982;2023-07-09T16:01:04;7.38;;;4.10;;
8044;SDS011;4065;48.754;9.982;2023-07-09T16:04:28;7.72;;;4.28;;
8044;SDS011;4065;48.754;9.982;2023-07-09T16:07:52;8.07;;;4.70;;
8044;SDS011;4065;48.754;9.982;2023-07-09T16:11:17;5.32;;;4.22;;
8044;SDS011;4065;48.754;9.982;2023-07-09T16:14:40;9.57;;;4.50;;
8044;SDS011;4065;48.754;9.982;2023-07-09T16:18:04;7.55;;;3.88;;
8044;SDS011;4065;48.754;9.982;2023-07-09T16:21:30;10.27;;;4.68;;
8044;SDS011;4065;48.754;9.982;2023-07-09T16:24:54;6.65;;;4.47;;
8044;SDS011;4065;48.754;9.982;2023-07-09T16:28:17;7.28;;;4.82;;
8044;SDS011;4065;48.754;9.982;2023-07-09T16:31:40;8.70;;;4.32;;
8044;SDS011;4065;48.754;9.982;2023-07-09T16:35:03;10.75;;;4.68;;
8044;SDS011;4065;48.754;9.982;2023-07-09T16:38:25;8.15;;;4.47;;
8044;SDS011;4065;48.754;9.982;2023-07-09T16:41:48;9.23;;;4.30;;
8044;SDS011;4065;48.754;9.982;2023-07-09T16:45:12;6.03;;;4.32;;
8044;SDS011;4065;48.754;9.982;2023-07-09T16:48:35;8.40;;;5.00;;
8044;SDS011;4065;48.754;9.982;2023-07-09T16:51:57;7.65;;;4.57;;
8044;SDS011;4065;48.754;9.982;2023-07-09T16:55:20;7.75;;;4.25;;
8044;SDS011;4065;48.754;9.982;2023-07-09T16:58:48;6.15;;;4.20;;
8044;SDS011;4065;48.754;9.982;2023-07-09T17:02:16;7.55;;;3.92;;
8044;SDS011;4065;48.754;9.982;2023-07-09T17:05:45;7.20;;;4.65;;
8044;SDS011;4065;48.754;9.982;2023-07-09T17:09:07;7.18;;;4.30;;
8044;SDS011;4065;48.754;9.982;2023-07-09T17:12:30;8.18;;;4.57;;
8044;SDS011;4065;48.754;9.982;2023-07-09T17:15:54;6.18;;;4.32;;
8044;SDS011;4065;48.754;9.982;2023-07-09T17:19:16;10.18;;;4.20;;
8044;SDS011;4065;48.754;9.982;2023-07-09T17:22:39;10.20;;;4.70;;
8044;SDS011;4065;48.754;9.982;2023-07-09T17:26:01;8.05;;;4.40;;
8044;SDS011;4065;48.754;9.982;2023-07-09T17:29:23;6.72;;;4.45;;
8044;SDS011;4065;48.754;9.982;2023-07-09T17:32:47;12.57;;;4.93;;
8044;SDS011;4065;48.754;9.982;2023-07-09T17:36:10;7.88;;;4.68;;
8044;SDS011;4065;48.754;9.982;2023-07-09T17:39:34;6.03;;;3.92;;
8044;SDS011;4065;48.754;9.982;2023-07-09T17:42:58;10.23;;;4.88;;
8044;SDS011;4065;48.754;9.982;2023-07-09T17:46:20;7.30;;;4.68;;
8044;SDS011;4065;48.754;9.982;2023-07-09T17:49:44;9.75;;;4.97;;
8044;SDS011;4065;48.754;9.982;2023-07-09T17:53:08;9.38;;;4.68;;
8044;SDS011;4065;48.754;9.982;2023-07-09T17:56:36;11.90;;;4.80;;
8044;SDS011;4065;48.754;9.982;2023-07-09T17:59:59;8.13;;;5.07;;
8044;SDS011;4065;48.754;9.982;2023-07-09T18:03:21;9.05;;;5.20;;
8044;SDS011;4065;48.754;9.982;2023-07-09T18:06:46;7.18;;;4.55;;
8044;SDS011;4065;48.754;9.982;2023-07-09T18:10:09;9.82;;;5.50;;
8044;SDS011;4065;48.754;9.982;2023-07-09T18:13:31;8.80;;;4.68;;
8044;SDS011;4065;48.754;9.982;2023-07-09T18:16:54;8.27;;;4.70;;
8044;SDS011;4065;48.754;9.982;2023-07-09T18:20:18;9.02;;;4.88;;
8044;SDS011;4065;48.754;9.982;2023-07-09T18:23:43;7.63;;;4.35;;
8044;SDS011;4065;48.754;9.982;2023-07-09T18:27:05;9.27;;;4.60;;
8044;SDS011;4065;48.754;9.982;2023-07-09T18:30:30;6.80;;;4.95;;
8044;SDS011;4065;48.754;9.982;2023-07-09T18:33:53;8.80;;;4.80;;
8044;SDS011;4065;48.754;9.982;2023-07-09T18:37:16;7.38;;;4.57;;
8044;SDS011;4065;48.754;9.982;2023-07-09T18:40:40;7.38;;;4.40;;
8044;SDS011;4065;48.754;9.982;2023-07-09T18:44:09;7.40;;;4.80;;
8044;SDS011;4065;48.754;9.982;2023-07-09T18:47:36;8.02;;;4.78;;
8044;SDS011;4065;48.754;9.982;2023-07-09T18:50:58;6.90;;;4.80;;
8044;SDS011;4065;48.754;9.982;2023-07-09T18:54:21;7.38;;;4.60;;
8044;SDS011;4065;48.754;9.982;2023-07-09T18:57:45;9.65;;;4.70;;
8044;SDS011;4065;48.754;9.982;2023-07-09T19:01:11;8.15;;;5.13;;
8044;SDS011;4065;48.754;9.982;2023-07-09T19:04:38;7.93;;;4.75;;
8044;SDS011;4065;48.754;9.982;2023-07-09T19:08:01;6.88;;;4.65;;
8044;SDS011;4065;48.754;9.982;2023-07-09T19:11:37;9.18;;;4.70;;
8044;SDS011;4065;48.754;9.982;2023-07-09T19:15:01;7.43;;;4.93;;
8044;SDS011;4065;48.754;9.982;2023-07-09T19:18:23;9.85;;;4.97;;
8044;SDS011;4065;48.754;9.982;2023-07-09T19:21:48;6.65;;;4.70;;
8044;SDS011;4065;48.754;9.982;2023-07-09T19:25:12;7.00;;;5.03;;
8044;SDS011;4065;48.754;9.982;2023-07-09T19:28:35;10.13;;;4.85;;
8044;SDS011;4065;48.754;9.982;2023-07-09T19:31:59;9.07;;;4.60;;
8044;SDS011;4065;48.754;9.982;2023-07-09T19:35:25;9.98;;;5.13;;
8044;SDS011;4065;48.754;9.982;2023-07-09T19:38:49;6.47;;;4.47;;
8044;SDS011;4065;48.754;9.982;2023-07-09T19:42:12;8.38;;;4.75;;
8044;SDS011;4065;48.754;9.982;2023-07-09T19:45:36;7.97;;;5.47;;
8044;SDS011;4065;48.754;9.982;2023-07-09T19:49:01;8.68;;;5.03;;
8044;SDS011;4065;48.754;9.982;2023-07-09T19:52:23;6.47;;;4.82;;
8044;SDS011;4065;48.754;9.982;2023-07-09T19:55:45;7.97;;;5.13;;
8044;SDS011;4065;48.754;9.982;2023-07-09T19:59:08;6.93;;;4.90;;
8044;SDS011;4065;48.754;9.982;2023-07-09T20:02:29;8.15;;;5.32;;
8044;SDS011;4065;48.754;9.982;2023-07-09T20:05:54;9.65;;;5.28;;
8044;SDS011;4065;48.754;9.982;2023-07-09T20:09:16;8.05;;;5.05;;
8044;SDS011;4065;48.754;9.982;2023-07-09T20:12:39;7.00;;;5.07;;
8044;SDS011;4065;48.754;9.982;2023-07-09T20:16:04;8.40;;;4.97;;
8044;SDS011;4065;48.754;9.982;2023-07-09T20:19:26;5.65;;;4.72;;
8044;SDS011;4065;48.754;9.982;2023-07-09T20:22:49;8.85;;;5.30;;
8044;SDS011;4065;48.754;9.982;2023-07-09T20:26:11;7.05;;;5.07;;
8044;SDS011;4065;48.754;9.982;2023-07-09T20:29:34;8.43;;;5.38;;
8044;SDS011;4065;48.754;9.982;2023-07-09T20:32:56;6.90;;;5.13;;
8044;SDS011;4065;48.754;9.982;2023-07-09T20:36:18;9.13;;;5.05;;
8044;SDS011;4065;48.754;9.982;2023-07-09T20:39:43;7.25;;;4.68;;
8044;SDS011;4065;48.754;9.982;2023-07-09T20:43:15;7.45;;;4.80;;
8044;SDS011;4065;48.754;9.982;2023-07-09T20:46:43;6.70;;;4.90;;
8044;SDS011;4065;48.754;9.982;2023-07-09T20:50:11;8.23;;;5.43;;
8044;SDS011;4065;48.754;9.982;2023-07-09T20:53:34;9.80;;;5.55;;
8044;SDS011;4065;48.754;9.982;2023-07-09T20:56:58;10.93;;;5.47;;
8044;SDS011;4065;48.754;9.982;2023-07-09T21:00:24;7.40;;;5.40;;
8044;SDS011;4065;48.754;9.982;2023-07-09T21:03:52;7.90;;;4.90;;
8044;SDS011;4065;48.754;9.982;2023-07-09T21:07:14;7.93;;;5.60;;
8044;SDS011;4065;48.754;9.982;2023-07-09T21:10:37;8.63;;;5.15;;
8044;SDS011;4065;48.754;9.982;2023-07-09T21:14:00;8.55;;;5.45;;